This is the latest recevied weather packets stored in our database for station/object HG8GL-6. If no packets are shown the sender has not sent any weather packets the latest 1 day(s).
| Time | Temp. | Humidity | Pressure | Rain* | Wind** | Luminosity | Snow |
|---|---|---|---|---|---|---|---|
| 1778069688 | 26.11° C | 34% | 1011 hPa | 0 mm | - | - | - |
| 1778069058 | 26.11° C | 34% | 1012 hPa | 0 mm | - | - | - |
| 1778067858 | 26.67° C | 35% | 1012 hPa | 0 mm | - | - | - |
| 1778056067 | 22.78° C | 42% | 1013 hPa | 0 mm | - | - | - |
| 1778054807 | 22.22° C | 44% | 1013 hPa | 0 mm | - | - | - |
| 1778054177 | 21.67° C | 44% | 1013 hPa | 0 mm | - | - | - |
| 1778052947 | 21.67° C | 45% | 1012 hPa | 0 mm | - | - | - |
| 1778051117 | 20.56° C | 48% | 1013 hPa | 0 mm | - | - | - |
| 1778050487 | 20° C | 49% | 1013 hPa | 0 mm | - | - | - |
| 1778049857 | 19.44° C | 50% | 1013 hPa | 0 mm | - | - | - |
| 1778049227 | 18.89° C | 52% | 1013 hPa | 0 mm | - | - | - |
| 1778048597 | 18.89° C | 54% | 1012 hPa | 0 mm | - | - | - |
| 1778047967 | 18.33° C | 55% | 1012 hPa | 0 mm | - | - | - |
| 1778047367 | 17.78° C | 57% | 1013 hPa | 0 mm | - | - | - |
| 1778046737 | 17.78° C | 59% | 1013 hPa | 0 mm | - | - | - |
| 1778046107 | 17.22° C | 65% | 1013 hPa | 0 mm | - | - | - |
| 1778045477 | 16.11° C | 68% | 1012 hPa | 0 mm | - | - | - |
| 1778044877 | 15.56° C | 71% | 1012 hPa | 0 mm | - | - | - |
| 1778044247 | 15° C | 72% | 1012.2 hPa | 0 mm | - | - | - |
| 1778043647 | 14.44° C | 74% | 1013 hPa | 0 mm | - | - | - |
| 1778043047 | 13.89° C | 74% | 1012 hPa | 0 mm | - | - | - |
| 1778042447 | 13.33° C | 74% | 1012 hPa | 0 mm | - | - | - |
| 1778041817 | 13.33° C | 74% | 1012 hPa | 0 mm | - | - | - |
| 1778041187 | 12.78° C | 74% | 1012 hPa | 0 mm | - | - | - |
| 1778040557 | 12.78° C | 74% | 1012 hPa | 0 mm | - | - | - |
* Rain latest hour (hover to see other rain measurements)
** Current wind speed in m/s (hover to see current wind gust speed)